sensor_id;sensor_type;location;lat;lon;timestamp;temperature;humidity
13446;DHT22;6795;51.232;3.764;2024-01-15T04:31:21;5.20;99.90
13446;DHT22;6795;51.232;3.764;2024-01-15T04:33:50;0.30;99.90
13446;DHT22;6795;51.232;3.764;2024-01-15T04:36:18;0.30;99.90
13446;DHT22;6795;51.232;3.764;2024-01-15T04:38:46;0.40;99.90
13446;DHT22;6795;51.232;3.764;2024-01-15T04:41:14;0.40;99.90
13446;DHT22;6795;51.232;3.764;2024-01-15T04:43:46;0.30;99.90
13446;DHT22;6795;51.232;3.764;2024-01-15T04:46:15;0.30;99.90
13446;DHT22;6795;51.232;3.764;2024-01-15T04:48:43;0.20;99.90
13446;DHT22;6795;51.232;3.764;2024-01-15T04:51:11;0.30;99.90
13446;DHT22;6795;51.232;3.764;2024-01-15T04:53:39;0.40;99.90
13446;DHT22;6795;51.232;3.764;2024-01-15T04:56:08;0.30;99.90
13446;DHT22;6795;51.232;3.764;2024-01-15T04:58:36;0.40;99.90
13446;DHT22;6795;51.232;3.764;2024-01-15T05:01:08;0.40;99.90
13446;DHT22;6795;51.232;3.764;2024-01-15T05:03:37;0.40;99.90
13446;DHT22;6795;51.232;3.764;2024-01-15T05:06:07;0.40;99.90
13446;DHT22;6795;51.232;3.764;2024-01-15T05:08:36;0.50;99.90
13446;DHT22;6795;51.232;3.764;2024-01-15T05:11:04;0.40;99.90
13446;DHT22;6795;51.232;3.764;2024-01-15T05:13:33;0.40;99.90
13446;DHT22;6795;51.232;3.764;2024-01-15T05:16:01;0.40;99.90
13446;DHT22;6795;51.232;3.764;2024-01-15T05:18:30;0.40;99.90
13446;DHT22;6795;51.232;3.764;2024-01-15T05:20:59;0.40;99.90
13446;DHT22;6795;51.232;3.764;2024-01-15T05:23:27;0.40;99.90
13446;DHT22;6795;51.232;3.764;2024-01-15T05:25:56;0.60;99.90
13446;DHT22;6795;51.232;3.764;2024-01-15T14:22:37;0.80;99.90
13446;DHT22;6795;51.232;3.764;2024-01-15T14:25:07;2.60;99.90
13446;DHT22;6795;51.232;3.764;2024-01-15T14:27:38;2.60;99.90
13446;DHT22;6795;51.232;3.764;2024-01-15T14:30:07;2.70;99.90
13446;DHT22;6795;51.232;3.764;2024-01-15T14:32:36;2.80;99.90
13446;DHT22;6795;51.232;3.764;2024-01-15T14:35:05;2.90;99.90
13446;DHT22;6795;51.232;3.764;2024-01-15T14:37:35;3.00;99.90
13446;DHT22;6795;51.232;3.764;2024-01-15T14:40:04;3.00;99.90
13446;DHT22;6795;51.232;3.764;2024-01-15T14:42:34;3.00;99.90
13446;DHT22;6795;51.232;3.764;2024-01-15T14:45:05;3.00;99.90
13446;DHT22;6795;51.232;3.764;2024-01-15T14:47:39;3.10;99.90
13446;DHT22;6795;51.232;3.764;2024-01-15T14:50:09;3.00;99.90
13446;DHT22;6795;51.232;3.764;2024-01-15T14:52:39;2.90;99.90
13446;DHT22;6795;51.232;3.764;2024-01-15T14:55:09;2.70;99.90
13446;DHT22;6795;51.232;3.764;2024-01-15T14:57:38;2.60;99.90
13446;DHT22;6795;51.232;3.764;2024-01-15T15:00:08;2.40;99.90
13446;DHT22;6795;51.232;3.764;2024-01-15T15:02:36;2.30;99.90
